Time;durP1;ratioP1;P1;durP2;ratioP2;P2;SDS_P1;SDS_P2;PMS_P1;PMS_P2;Temp;Humidity;BMP_temperature;BMP_pressure;BME280_temperature;BME280_humidity;BME280_pressure;Samples;Min_cycle;Max_cycle;Signal;HPM_P1;HPM_P2
2021/09/27 00:00:53;;;;;;;20.60;16.10;;;;;;;14.62;75.80;100889.77;1770703;79;21005;-76
2021/09/27 00:03:19;;;;;;;17.37;15.48;;;;;;;14.63;75.89;100894.13;1800380;79;21537;-76
2021/09/27 00:05:45;;;;;;;22.62;16.90;;;;;;;14.63;75.99;100884.73;1801290;79;21568;-76
2021/09/27 00:08:11;;;;;;;21.15;15.93;;;;;;;14.56;76.15;100870.38;1801297;79;21037;-76
2021/09/27 00:10:51;;;;;;;19.02;15.60;;;;;;;14.63;76.15;100896.81;1801045;79;21100;-76
2021/09/27 00:13:18;;;;;;;21.05;17.27;;;;;;;14.62;76.24;100893.80;1739557;82;21133;-76
2021/09/27 00:15:48;;;;;;;18.80;15.60;;;;;;;14.64;76.33;100901.14;1744251;81;21743;-76
2021/09/27 00:18:15;;;;;;;20.80;16.60;;;;;;;14.63;76.38;100903.02;1751633;81;21065;-76
2021/09/27 00:20:44;;;;;;;19.27;16.35;;;;;;;14.58;76.44;100891.15;1752668;81;21010;-76
2021/09/27 00:23:12;;;;;;;17.73;15.03;;;;;;;14.61;76.50;100902.86;1768749;81;21536;-76
2021/09/27 00:25:38;;;;;;;20.88;16.27;;;;;;;14.61;76.54;100898.83;1768122;81;21045;-76
2021/09/27 00:28:04;;;;;;;20.30;16.57;;;;;;;14.59;76.61;100895.51;1768205;81;21542;-76
2021/09/27 00:30:30;;;;;;;20.40;16.85;;;;;;;14.57;76.64;100902.89;1769811;80;21483;-76
2021/09/27 00:32:56;;;;;;;19.17;16.10;;;;;;;14.55;76.72;100906.28;1767593;81;20997;-76
2021/09/27 00:35:26;;;;;;;20.27;16.70;;;;;;;14.55;76.76;100907.63;1768046;81;21494;-76
2021/09/27 00:37:52;;;;;;;20.27;16.40;;;;;;;14.53;76.80;100908.33;1767726;81;21593;-75
2021/09/27 00:40:24;;;;;;;20.00;16.85;;;;;;;14.52;76.87;100906.66;1751809;81;21905;-76
2021/09/27 00:42:51;;;;;;;21.77;17.35;;;;;;;14.50;76.94;100905.48;1737347;82;21073;-75
2021/09/27 00:45:20;;;;;;;20.00;16.57;;;;;;;14.48;76.99;100908.36;1737254;81;21061;-75
2021/09/27 00:47:46;;;;;;;21.77;17.63;;;;;;;14.45;77.06;100900.68;1737627;82;21034;-75
2021/09/27 00:50:13;;;;;;;20.45;16.65;;;;;;;14.43;77.11;100903.20;1759456;81;21212;-75
2021/09/27 00:52:39;;;;;;;25.30;18.12;;;;;;;14.40;77.20;100899.55;1756069;81;21087;-75
2021/09/27 00:55:07;;;;;;;18.92;16.52;;;;;;;14.39;77.23;100904.07;1737467;81;21105;-75
2021/09/27 00:57:33;;;;;;;22.17;17.67;;;;;;;14.36;77.29;100897.73;1766607;81;21009;-75
2021/09/27 00:59:59;;;;;;;22.05;17.55;;;;;;;14.34;77.37;100899.78;1766439;81;20998;-75
2021/09/27 01:02:25;;;;;;;21.50;17.17;;;;;;;14.32;77.43;100895.59;1740801;81;21096;-75
2021/09/27 01:04:53;;;;;;;27.42;18.87;;;;;;;14.31;77.52;100894.75;1767967;81;21522;-75
2021/09/27 01:07:59;;;;;;;22.62;19.02;;;;;;;14.28;77.56;100891.59;1767633;81;21025;-75
2021/09/27 01:10:59;;;;;;;22.52;17.80;;;;;;;14.23;77.64;100892.13;1744766;81;20978;-75
2021/09/27 01:13:46;;;;;;;27.22;17.75;;;;;;;14.21;77.72;100894.17;1737259;82;21522;-75
2021/09/27 01:16:23;;;;;;;23.90;17.90;;;;;;;14.18;77.81;100893.70;1742717;81;20994;-75
2021/09/27 01:19:25;;;;;;;24.43;17.82;;;;;;;14.15;77.88;100886.83;1752208;81;21819;-75
2021/09/27 01:22:05;;;;;;;22.65;18.60;;;;;;;14.13;77.93;100889.38;1765500;81;21551;-75
2021/09/27 01:25:10;;;;;;;20.72;17.70;;;;;;;14.09;78.03;100882.20;1737076;82;21053;-76
2021/09/27 01:28:19;;;;;;;22.42;18.62;;;;;;;14.05;78.08;100880.05;1737234;82;21132;-76
2021/09/27 01:30:54;;;;;;;26.65;19.23;;;;;;;14.02;78.17;100885.27;1734590;82;21033;-76
2021/09/27 01:33:46;;;;;;;26.10;18.80;;;;;;;13.99;78.25;100877.59;1715464;82;22217;-76
2021/09/27 01:36:53;;;;;;;25.60;19.05;;;;;;;13.98;78.31;100877.25;1738250;82;20990;-76
2021/09/27 01:39:28;;;;;;;23.05;19.23;;;;;;;13.95;78.39;100877.63;1760834;81;21025;-75
2021/09/27 01:42:08;;;;;;;24.50;20.62;;;;;;;13.95;78.46;100874.94;1770225;81;21422;-75
2021/09/27 01:44:49;;;;;;;27.32;21.00;;;;;;;13.93;78.54;100879.66;1769664;81;20997;-75
2021/09/27 01:47:30;;;;;;;24.63;20.20;;;;;;;13.92;78.61;100883.34;1769935;81;21942;-75
2021/09/27 01:50:03;;;;;;;29.52;20.85;;;;;;;13.89;78.68;100874.33;1744733;81;21064;-75
2021/09/27 01:52:39;;;;;;;23.22;19.92;;;;;;;13.87;78.78;100880.36;1768253;81;21005;-75
2021/09/27 01:55:16;;;;;;;23.73;19.98;;;;;;;13.84;78.84;100873.52;1754259;81;21010;-75
2021/09/27 01:58:03;;;;;;;25.48;21.97;;;;;;;13.82;78.92;100876.05;1770278;81;21065;-75
2021/09/27 02:00:51;;;;;;;28.07;21.57;;;;;;;13.80;78.99;100877.56;1767771;81;21158;-75
2021/09/27 02:03:31;;;;;;;28.75;21.07;;;;;;;13.79;79.07;100880.44;1741939;81;21032;-75
2021/09/27 02:06:12;;;;;;;30.77;22.75;;;;;;;13.74;79.15;100874.27;1769916;81;21045;-75
2021/09/27 02:08:49;;;;;;;26.23;22.05;;;;;;;13.73;79.20;100873.09;1770349;80;21465;-75
2021/09/27 02:11:30;;;;;;;28.60;23.10;;;;;;;13.70;79.28;100869.43;1770406;81;21063;-75
2021/09/27 02:14:21;;;;;;;28.38;22.80;;;;;;;13.68;79.33;100871.47;1770145;81;21064;-75
2021/09/27 02:17:08;;;;;;;28.60;22.27;;;;;;;13.66;79.39;100872.13;1738241;81;21040;-75
2021/09/27 02:19:57;;;;;;;27.20;22.25;;;;;;;13.64;79.48;100868.81;1755275;81;21000;-75
2021/09/27 02:22:40;;;;;;;33.00;22.77;;;;;;;13.61;79.53;100863.31;1725826;83;21028;-75
2021/09/27 02:25:12;;;;;;;27.22;22.25;;;;;;;13.59;79.61;100871.17;1727070;83;21036;-75
2021/09/27 02:27:39;;;;;;;26.20;23.30;;;;;;;13.57;79.68;100871.88;1727095;82;21310;-75
2021/09/27 02:30:07;;;;;;;27.37;23.42;;;;;;;13.55;79.74;100872.53;1739337;82;21009;-75
2021/09/27 02:32:53;;;;;;;30.62;23.65;;;;;;;13.53;79.80;100871.89;1737879;81;20962;-76
2021/09/27 02:35:30;;;;;;;30.77;24.07;;;;;;;13.50;79.85;100869.08;1736998;81;21017;-75
2021/09/27 02:38:14;;;;;;;31.95;23.77;;;;;;;13.48;79.94;100875.94;1746024;81;21513;-76
2021/09/27 02:41:21;;;;;;;31.90;23.60;;;;;;;13.46;79.99;100872.61;1766398;81;21141;-76
2021/09/27 02:43:47;;;;;;;30.27;24.65;;;;;;;13.43;80.05;100868.95;1767636;81;21572;-76
2021/09/27 02:46:14;;;;;;;33.35;24.75;;;;;;;13.40;80.13;100867.97;1767629;81;21029;-76
2021/09/27 02:48:42;;;;;;;29.80;24.25;;;;;;;13.40;80.21;100860.44;1741383;81;21079;-76
2021/09/27 02:51:10;;;;;;;32.10;25.68;;;;;;;13.40;80.27;100865.29;1766943;81;21045;-76
2021/09/27 02:53:36;;;;;;;29.50;24.82;;;;;;;13.39;80.32;100855.58;1760373;81;21727;-75
2021/09/27 02:56:43;;;;;;;32.10;25.32;;;;;;;13.39;80.37;100866.30;1757015;81;21049;-75
2021/09/27 02:59:33;;;;;;;32.23;23.83;;;;;;;13.39;80.47;100863.61;1704809;83;21016;-75
2021/09/27 03:02:13;;;;;;;34.33;26.00;;;;;;;13.37;80.56;100858.92;1704646;84;21022;-75
2021/09/27 03:04:59;;;;;;;31.48;25.37;;;;;;;13.35;80.63;100859.61;1704947;83;21030;-75
2021/09/27 03:07:49;;;;;;;35.08;26.33;;;;;;;13.33;80.71;100858.13;1676403;85;21152;-75
2021/09/27 03:10:27;;;;;;;29.75;23.75;;;;;;;13.30;80.75;100856.62;1704442;84;20995;-75
2021/09/27 03:13:25;;;;;;;32.78;25.08;;;;;;;13.31;80.81;100863.66;1703992;84;21013;-75
2021/09/27 03:16:16;;;;;;;33.58;24.25;;;;;;;13.31;80.86;100866.33;1704846;83;20998;-75
2021/09/27 03:19:04;;;;;;;32.90;25.57;;;;;;;13.27;80.92;100866.34;1708376;82;21119;-76
2021/09/27 03:21:42;;;;;;;33.38;26.17;;;;;;;13.25;80.96;100868.38;1719894;82;21002;-76
2021/09/27 03:24:39;;;;;;;32.30;25.08;;;;;;;13.24;81.01;100870.72;1733263;82;21092;-76
2021/09/27 03:27:17;;;;;;;32.65;26.00;;;;;;;13.23;81.06;100869.05;1733644;82;21010;-76
2021/09/27 03:30:14;;;;;;;31.12;24.70;;;;;;;13.20;81.10;100864.05;1683917;82;21037;-76
2021/09/27 03:33:16;;;;;;;33.85;25.48;;;;;;;13.18;81.16;100863.40;1761310;80;21005;-76
2021/09/27 03:36:05;;;;;;;31.97;26.42;;;;;;;13.14;81.19;100856.72;1760939;81;21188;-75
2021/09/27 03:38:56;;;;;;;35.95;26.12;;;;;;;13.09;81.24;100848.36;1694371;82;21024;-75
2021/09/27 03:41:40;;;;;;;35.90;26.62;;;;;;;13.09;81.29;100850.20;1713567;82;21476;-75
2021/09/27 03:44:27;;;;;;;34.98;27.10;;;;;;;13.07;81.32;100853.03;1739971;81;20997;-75
2021/09/27 03:47:23;;;;;;;40.45;28.10;;;;;;;13.08;81.38;100854.72;1741305;81;21068;-75
2021/09/27 03:50:12;;;;;;;31.80;26.35;;;;;;;13.06;81.44;100850.02;1740183;81;21284;-75
2021/09/27 03:52:59;;;;;;;35.23;28.02;;;;;;;13.04;81.48;100850.72;1744824;81;21484;-75
2021/09/27 03:55:39;;;;;;;31.17;26.60;;;;;;;13.03;81.53;100841.00;1738950;81;21024;-75
2021/09/27 03:58:11;;;;;;;34.58;28.32;;;;;;;13.05;81.58;100841.68;1741175;81;21242;-75
2021/09/27 04:00:50;;;;;;;39.45;29.65;;;;;;;13.03;81.62;100834.31;1739365;81;21541;-75
2021/09/27 04:04:14;;;;;;;38.13;28.85;;;;;;;13.03;81.69;100836.98;1739939;81;21117;-75
2021/09/27 04:07:03;;;;;;;40.23;29.02;;;;;;;13.02;81.73;100837.98;1760148;81;21517;-75
2021/09/27 04:10:10;;;;;;;41.35;29.00;;;;;;;13.03;81.80;100834.31;1770167;81;28109;-75
2021/09/27 04:13:04;;;;;;;38.08;28.67;;;;;;;13.04;81.86;100834.65;1758128;81;21076;-75
2021/09/27 04:15:38;;;;;;;39.42;28.87;;;;;;;13.06;81.94;100843.33;1770417;81;21031;-75
2021/09/27 04:18:19;;;;;;;40.73;29.18;;;;;;;13.10;82.00;100840.67;1770396;81;21187;-76
2021/09/27 04:21:16;;;;;;;35.90;28.67;;;;;;;13.10;82.04;100846.02;1766665;81;22249;-75
2021/09/27 04:24:06;;;;;;;41.35;29.98;;;;;;;13.11;82.10;100841.00;1770691;81;21500;-76
2021/09/27 04:27:00;;;;;;;38.90;28.77;;;;;;;13.15;82.17;100848.19;1770596;81;20992;-76
2021/09/27 04:29:37;;;;;;;38.67;28.85;;;;;;;13.17;82.22;100845.66;1768664;81;21495;-75
2021/09/27 04:32:15;;;;;;;36.55;28.83;;;;;;;13.17;82.25;100845.66;1753895;80;21194;-75
2021/09/27 04:34:56;;;;;;;34.65;27.13;;;;;;;13.19;82.32;100849.00;1769956;81;21028;-75
2021/09/27 04:37:22;;;;;;;38.33;28.27;;;;;;;13.22;82.36;100849.98;1744113;81;21005;-75
2021/09/27 04:39:48;;;;;;;37.45;28.80;;;;;;;13.23;82.40;100847.61;1770022;81;21478;-75
2021/09/27 04:42:58;;;;;;;41.23;28.90;;;;;;;13.24;82.44;100841.26;1752604;81;20989;-75
2021/09/27 04:45:50;;;;;;;38.75;28.67;;;;;;;13.27;82.51;100844.08;1706453;83;21104;-75
2021/09/27 04:48:57;;;;;;;37.23;27.87;;;;;;;13.29;82.56;100842.92;1695684;82;20985;-75
2021/09/27 04:51:54;;;;;;;39.35;28.32;;;;;;;13.32;82.60;100849.25;1739977;81;21636;-75
2021/09/27 04:54:53;;;;;;;37.30;28.77;;;;;;;13.34;82.66;100837.01;1708841;82;21002;-75
2021/09/27 04:57:27;;;;;;;37.45;27.15;;;;;;;13.36;82.70;100837.68;1737044;82;20993;-74
2021/09/27 05:00:07;;;;;;;38.48;29.07;;;;;;;13.38;82.77;100835.14;1741069;81;21146;-75
2021/09/27 05:03:01;;;;;;;39.30;28.87;;;;;;;13.39;82.79;100830.13;1739717;81;20984;-75
2021/09/27 05:05:53;;;;;;;39.85;28.12;;;;;;;13.43;82.86;100842.66;1708643;82;21343;-76
2021/09/27 05:08:51;;;;;;;40.67;27.73;;;;;;;13.45;82.90;100841.46;1741684;81;21563;-76
2021/09/27 05:12:07;;;;;;;34.58;27.17;;;;;;;13.49;82.95;100836.08;1741554;81;21018;-76
2021/09/27 05:14:56;;;;;;;36.88;27.60;;;;;;;13.54;82.97;100837.40;1682953;83;21501;-75
2021/09/27 05:18:06;;;;;;;36.13;28.47;;;;;;;13.57;83.01;100841.89;1686316;84;21079;-75
2021/09/27 05:21:01;;;;;;;33.83;27.62;;;;;;;13.61;83.05;100842.38;1723207;81;21120;-76
2021/09/27 05:23:50;;;;;;;35.58;27.87;;;;;;;13.64;83.06;100846.03;1730621;81;21028;-76
2021/09/27 05:26:37;;;;;;;35.50;27.45;;;;;;;13.67;83.08;100842.48;1723897;82;21033;-75
2021/09/27 05:29:38;;;;;;;36.55;27.00;;;;;;;13.71;83.10;100848.33;1748226;81;21788;-76
2021/09/27 05:32:41;;;;;;;38.88;26.73;;;;;;;13.75;83.13;100849.64;1752628;81;21052;-75
2021/09/27 05:35:33;;;;;;;40.67;29.12;;;;;;;13.78;83.15;100852.79;1753624;81;21075;-76
2021/09/27 05:38:13;;;;;;;37.67;28.27;;;;;;;13.83;83.18;100856.25;1753407;81;21036;-76
2021/09/27 05:41:21;;;;;;;43.10;28.27;;;;;;;13.88;83.16;100856.56;1728610;81;21071;-76
2021/09/27 05:44:21;;;;;;;32.40;26.17;;;;;;;13.90;83.18;100855.36;1741432;81;21211;-76
2021/09/27 05:47:02;;;;;;;37.95;26.55;;;;;;;13.95;83.18;100857.51;1757648;81;21066;-76
2021/09/27 05:50:08;;;;;;;35.90;26.00;;;;;;;13.98;83.15;100863.34;1749484;81;21478;-76
2021/09/27 05:52:51;;;;;;;34.40;25.95;;;;;;;14.02;83.17;100865.16;1757022;81;21037;-76
2021/09/27 05:56:03;;;;;;;36.30;26.07;;;;;;;14.05;83.17;100866.13;1739730;82;21061;-76
2021/09/27 05:58:47;;;;;;;38.53;27.07;;;;;;;14.09;83.21;100863.92;1730739;82;21506;-76
2021/09/27 06:01:18;;;;;;;33.95;26.25;;;;;;;14.13;83.20;100866.58;1727412;82;21461;-76
2021/09/27 06:04:16;;;;;;;33.65;27.55;;;;;;;14.15;83.18;100868.05;1751187;81;20976;-76
2021/09/27 06:06:53;;;;;;;34.58;27.48;;;;;;;14.19;83.19;100866.67;1740061;81;21510;-75
2021/09/27 06:09:54;;;;;;;36.75;27.35;;;;;;;14.22;83.21;100862.28;1708856;82;21088;-75
2021/09/27 06:12:31;;;;;;;34.38;26.62;;;;;;;14.27;83.18;100859.91;1704705;82;21277;-75
2021/09/27 06:15:00;;;;;;;32.58;26.07;;;;;;;14.33;83.19;100856.48;1769531;81;21005;-75
2021/09/27 06:18:07;;;;;;;37.10;26.82;;;;;;;14.37;83.16;100851.11;1770617;81;25843;-75
2021/09/27 06:20:58;;;;;;;34.95;26.48;;;;;;;14.42;83.17;100852.75;1667100;84;21025;-75
2021/09/27 06:23:42;;;;;;;33.88;25.55;;;;;;;14.47;83.17;100859.72;1655247;85;21037;-75
2021/09/27 06:26:11;;;;;;;36.65;26.57;;;;;;;14.52;83.15;100862.37;1706628;81;21160;-76
2021/09/27 06:28:57;;;;;;;35.87;27.47;;;;;;;14.58;83.14;100866.98;1741902;81;21008;-75
2021/09/27 06:31:40;;;;;;;32.58;24.40;;;;;;;14.65;83.13;100863.89;1746820;81;21453;-76
2021/09/27 06:34:19;;;;;;;34.13;25.55;;;;;;;14.73;83.12;100859.28;1748158;81;21477;-76
2021/09/27 06:36:45;;;;;;;37.90;26.52;;;;;;;14.83;83.09;100857.64;1739096;82;21026;-76
2021/09/27 06:39:18;;;;;;;31.77;24.45;;;;;;;14.95;83.16;100859.66;1768142;79;21518;-76
2021/09/27 06:41:47;;;;;;;28.95;23.32;;;;;;;14.95;83.16;100859.66;1752584;79;20965;-76
2021/09/27 06:44:14;;;;;;;32.33;24.70;;;;;;;15.00;82.92;100856.42;1729674;81;21007;-76
2021/09/27 06:46:40;;;;;;;29.90;23.87;;;;;;;15.00;82.92;100856.42;1754582;81;21112;-76
2021/09/27 06:49:07;;;;;;;32.93;24.85;;;;;;;15.04;82.92;100857.72;1751740;81;21457;-76
2021/09/27 06:51:36;;;;;;;29.30;23.57;;;;;;;15.08;82.89;100856.33;1762152;81;21113;-75
2021/09/27 06:54:01;;;;;;;30.72;24.50;;;;;;;15.16;82.75;100868.31;1766757;81;21009;-75
2021/09/27 06:56:27;;;;;;;30.40;23.95;;;;;;;15.29;82.83;100866.28;1768556;81;21057;-76
2021/09/27 06:58:53;;;;;;;32.95;25.12;;;;;;;15.51;82.70;100844.34;1742780;81;21108;-76
2021/09/27 07:01:21;;;;;;;31.97;23.00;;;;;;;15.51;82.70;100844.34;1739612;81;21659;-76
2021/09/27 07:03:47;;;;;;;32.90;23.67;;;;;;;15.76;82.64;100856.39;1767463;81;21064;-76
2021/09/27 07:06:13;;;;;;;30.37;23.30;;;;;;;15.99;82.58;100865.08;1752897;81;21427;-76
2021/09/27 07:08:39;;;;;;;26.55;22.00;;;;;;;16.18;82.51;100861.73;1760444;81;21110;-76
2021/09/27 07:11:05;;;;;;;25.50;21.82;;;;;;;16.35;82.38;100859.06;1738127;81;21039;-76
2021/09/27 07:13:31;;;;;;;26.02;22.42;;;;;;;16.49;82.28;100862.17;1759293;81;21041;-76
2021/09/27 07:15:57;;;;;;;29.67;21.87;;;;;;;16.61;82.10;100858.93;1758234;81;21166;-75
2021/09/27 07:18:23;;;;;;;26.75;22.22;;;;;;;16.77;82.01;100857.28;1749550;79;21541;-76
2021/09/27 07:20:49;;;;;;;28.17;20.92;;;;;;;17.00;81.88;100861.84;1755120;81;21449;-77
2021/09/27 07:23:16;;;;;;;26.85;21.15;;;;;;;17.17;81.70;100859.66;1750739;81;21474;-76
2021/09/27 07:25:41;;;;;;;28.25;21.33;;;;;;;17.31;81.53;100856.78;1732386;82;21040;-77
2021/09/27 07:28:08;;;;;;;23.90;20.12;;;;;;;17.32;81.27;100853.06;1707471;82;21099;-77
2021/09/27 07:30:34;;;;;;;24.30;19.98;;;;;;;17.21;81.03;100861.73;1753040;80;21105;-77
2021/09/27 07:33:01;;;;;;;27.45;20.37;;;;;;;17.29;80.92;100859.38;1749223;81;21053;-77
2021/09/27 07:35:29;;;;;;;26.20;20.50;;;;;;;17.34;80.72;100855.06;1747866;79;21018;-77
2021/09/27 07:37:55;;;;;;;29.25;20.45;;;;;;;17.45;80.55;100858.48;1759036;79;21029;-77
2021/09/27 07:40:26;;;;;;;25.23;19.55;;;;;;;17.50;80.35;100864.63;1751343;79;21123;-76
2021/09/27 07:42:52;;;;;;;29.05;20.55;;;;;;;17.53;80.17;100857.98;1763510;79;21085;-76
2021/09/27 07:45:20;;;;;;;26.95;20.80;;;;;;;17.65;80.04;100853.70;1759095;81;21432;-77
2021/09/27 07:47:46;;;;;;;28.23;20.65;;;;;;;17.70;79.80;100855.25;1750189;79;21075;-76
2021/09/27 07:50:14;;;;;;;25.45;19.12;;;;;;;17.72;79.62;100859.94;1741009;79;21025;-76
2021/09/27 07:52:40;;;;;;;24.72;19.73;;;;;;;17.86;79.47;100853.52;1752128;81;21054;-77
2021/09/27 07:55:07;;;;;;;26.17;18.82;;;;;;;17.84;79.25;100853.72;1765957;81;21021;-74
2021/09/27 07:57:33;;;;;;;30.25;20.90;;;;;;;17.92;79.13;100854.04;1753669;81;21045;-76
2021/09/27 07:59:59;;;;;;;27.07;20.45;;;;;;;17.91;78.88;100849.67;1764123;81;21042;-76
2021/09/27 08:02:30;;;;;;;22.15;19.48;;;;;;;17.97;78.77;100848.87;1744391;81;21065;-76
2021/09/27 08:04:53;;;;;;;24.67;20.60;;;;;;;18.03;78.60;100841.80;1755366;81;21290;-77
2021/09/27 08:07:20;;;;;;;23.40;18.65;;;;;;;18.09;78.38;100837.75;1750132;81;21479;-76
2021/09/27 08:09:47;;;;;;;24.35;19.90;;;;;;;18.25;78.21;100838.69;1749646;81;21605;-76
2021/09/27 08:12:13;;;;;;;27.10;19.55;;;;;;;18.33;78.00;100842.50;1739869;81;21001;-76
2021/09/27 08:14:40;;;;;;;26.97;20.02;;;;;;;18.38;77.79;100838.66;1737184;82;21000;-76
2021/09/27 08:17:06;;;;;;;23.30;19.65;;;;;;;18.33;77.48;100833.59;1737043;82;21183;-76
2021/09/27 08:19:32;;;;;;;25.52;20.08;;;;;;;18.26;77.32;100830.88;1737094;81;20989;-76
2021/09/27 08:21:58;;;;;;;27.20;20.35;;;;;;;18.38;77.21;100831.08;1739804;82;21081;-76
2021/09/27 08:24:24;;;;;;;26.00;19.48;;;;;;;18.38;76.99;100831.08;1739545;82;21511;-77
2021/09/27 08:26:50;;;;;;;28.62;19.82;;;;;;;18.48;76.87;100835.01;1739388;82;20998;-76
2021/09/27 08:29:17;;;;;;;24.50;20.45;;;;;;;18.51;76.73;100830.27;1739665;81;21249;-76
2021/09/27 08:31:43;;;;;;;23.32;18.92;;;;;;;18.57;76.56;100828.08;1739269;82;20975;-76
2021/09/27 08:34:09;;;;;;;26.60;20.23;;;;;;;18.62;76.42;100832.30;1724428;81;20981;-76
2021/09/27 08:36:35;;;;;;;27.48;18.98;;;;;;;18.63;76.23;100827.22;1720164;83;21006;-76
2021/09/27 08:39:03;;;;;;;24.50;20.45;;;;;;;18.71;76.12;100821.59;1709073;84;21061;-76
2021/09/27 08:41:51;;;;;;;30.50;19.23;;;;;;;18.73;75.99;100819.50;1706035;84;21169;-76
2021/09/27 08:45:01;;;;;;;26.48;18.40;;;;;;;18.78;75.85;100823.75;1705499;84;21037;-76
2021/09/27 08:47:53;;;;;;;25.35;19.48;;;;;;;18.84;75.73;100828.30;1705475;84;21482;-76
2021/09/27 08:50:31;;;;;;;26.42;19.23;;;;;;;18.91;75.44;100829.94;1705421;84;21089;-76
2021/09/27 08:53:06;;;;;;;24.60;18.40;;;;;;;18.87;75.22;100826.52;1705470;84;21019;-76
2021/09/27 08:55:32;;;;;;;24.87;18.35;;;;;;;18.91;75.12;100827.75;1705665;84;21494;-76
2021/09/27 08:58:37;;;;;;;21.75;18.23;;;;;;;18.98;74.97;100827.72;1684681;84;21556;-76
2021/09/27 09:01:19;;;;;;;23.75;18.92;;;;;;;18.97;74.77;100835.00;1705971;84;21465;-76
2021/09/27 09:04:03;;;;;;;22.40;17.92;;;;;;;18.94;74.59;100834.08;1705824;84;21004;-76
2021/09/27 09:06:40;;;;;;;25.10;18.60;;;;;;;19.01;74.54;100834.88;1705825;84;21046;-76
2021/09/27 09:09:26;;;;;;;23.02;17.85;;;;;;;19.13;74.39;100825.59;1705900;84;21310;-76
2021/09/27 09:12:21;;;;;;;25.62;19.07;;;;;;;19.26;74.25;100829.05;1705728;84;21072;-76
2021/09/27 09:15:20;;;;;;;25.52;17.73;;;;;;;19.42;74.19;100828.56;1705627;84;21540;-76
2021/09/27 09:18:15;;;;;;;22.53;17.77;;;;;;;19.44;73.91;100825.66;1705888;84;21502;-76
2021/09/27 09:21:04;;;;;;;24.02;17.12;;;;;;;19.39;73.71;100826.27;1705849;84;21029;-78
2021/09/27 09:23:34;;;;;;;23.00;16.43;;;;;;;19.41;73.54;100830.98;1709313;84;21135;-77
2021/09/27 09:26:09;;;;;;;24.27;17.70;;;;;;;19.50;73.50;100822.07;1705641;84;21002;-76
2021/09/27 09:28:35;;;;;;;23.98;17.50;;;;;;;19.52;73.34;100829.47;1704910;82;21009;-76
2021/09/27 09:31:17;;;;;;;19.85;17.17;;;;;;;19.51;73.18;100829.15;1706000;84;20906;-76
2021/09/27 09:33:53;;;;;;;25.17;18.23;;;;;;;19.44;73.02;100825.14;1716019;81;21030;-76
2021/09/27 09:36:36;;;;;;;24.98;17.82;;;;;;;19.41;72.92;100830.16;1729185;81;21254;-76
2021/09/27 09:39:32;;;;;;;25.45;18.25;;;;;;;19.48;72.88;100832.81;1729412;83;20985;-76
2021/09/27 09:42:18;;;;;;;19.67;15.88;;;;;;;19.69;72.88;100827.06;1729308;81;21033;-76
2021/09/27 09:44:46;;;;;;;23.62;16.27;;;;;;;19.91;72.68;100824.30;1732228;82;21018;-76
2021/09/27 09:47:20;;;;;;;23.35;16.20;;;;;;;20.02;72.42;100823.55;1736629;82;21025;-76
2021/09/27 09:50:25;;;;;;;20.62;16.10;;;;;;;20.09;72.22;100824.33;1736011;81;21630;-76
2021/09/27 09:52:54;;;;;;;20.77;15.10;;;;;;;20.08;71.92;100821.34;1734129;81;21039;-75
2021/09/27 09:55:39;;;;;;;26.82;16.30;;;;;;;20.21;71.74;100821.73;1739338;81;21459;-76
2021/09/27 09:58:10;;;;;;;18.02;15.30;;;;;;;20.30;71.60;100810.41;1741567;80;21418;-76
2021/09/27 10:00:53;;;;;;;18.92;16.67;;;;;;;20.39;71.37;100811.80;1733803;81;21044;-75
2021/09/27 10:03:23;;;;;;;25.30;16.82;;;;;;;20.47;71.20;100809.85;1744183;81;21211;-76
2021/09/27 10:06:07;;;;;;;20.43;14.93;;;;;;;20.49;71.04;100802.31;1706140;81;21112;-75
2021/09/27 10:08:35;;;;;;;25.95;16.37;;;;;;;20.59;70.94;100804.80;1740772;81;20990;-75
2021/09/27 10:11:05;;;;;;;20.20;14.87;;;;;;;20.85;70.82;100799.61;1749624;81;21493;-76
2021/09/27 10:13:40;;;;;;;20.23;14.85;;;;;;;20.93;70.51;100802.02;1743133;81;21016;-76
2021/09/27 10:16:14;;;;;;;24.27;15.58;;;;;;;20.98;70.32;100795.38;1742769;81;21534;-75
2021/09/27 10:18:44;;;;;;;20.88;13.62;;;;;;;21.04;70.10;100798.52;1747347;81;20945;-75
2021/09/27 10:21:31;;;;;;;24.90;15.85;;;;;;;21.21;69.98;100800.95;1705218;82;21084;-75
2021/09/27 10:24:20;;;;;;;23.87;14.80;;;;;;;21.22;69.48;100797.16;1753778;81;20994;-75
2021/09/27 10:26:51;;;;;;;17.48;14.05;;;;;;;21.09;69.20;100794.61;1739568;81;21016;-76
2021/09/27 10:29:22;;;;;;;18.67;14.00;;;;;;;21.12;69.16;100795.53;1750500;81;21624;-75
2021/09/27 10:32:17;;;;;;;20.17;13.15;;;;;;;21.18;69.06;100791.89;1747666;81;21057;-75
2021/09/27 10:34:43;;;;;;;15.88;12.95;;;;;;;21.32;68.97;100793.36;1732779;82;21050;-76
2021/09/27 10:37:16;;;;;;;18.90;13.65;;;;;;;21.41;68.82;100785.73;1737987;82;20994;-75
2021/09/27 10:39:45;;;;;;;20.15;14.25;;;;;;;21.34;68.59;100785.84;1748874;81;21053;-75
2021/09/27 10:42:12;;;;;;;;;;;;;;;21.29;68.54;100788.40;1719026;82;21739;-74
2021/09/27 10:44:42;;;;;;;17.85;14.23;;;;;;;21.20;68.35;100791.16;1711908;82;20196;-74
2021/09/27 10:47:22;;;;;;;17.57;13.85;;;;;;;21.03;68.15;100783.33;1720767;82;21004;-74
2021/09/27 10:50:06;;;;;;;16.77;12.03;;;;;;;20.92;68.10;100782.73;1720774;82;21080;-74
2021/09/27 10:52:52;;;;;;;22.67;14.65;;;;;;;20.97;68.16;100783.41;1745290;81;21013;-74
2021/09/27 10:55:24;;;;;;;15.88;12.25;;;;;;;21.01;68.05;100785.41;1741768;81;21509;-74
2021/09/27 10:58:06;;;;;;;18.27;13.48;;;;;;;20.96;67.90;100785.30;1726470;82;21536;-74
2021/09/27 11:00:52;;;;;;;15.20;12.15;;;;;;;20.93;67.83;100785.20;1762877;81;21075;-74
2021/09/27 11:03:53;;;;;;;16.45;11.22;;;;;;;20.96;67.80;100792.07;1748004;81;20918;-74
2021/09/27 11:06:45;;;;;;;16.05;11.45;;;;;;;21.01;67.79;100781.88;1690589;82;21595;-73
2021/09/27 11:09:31;;;;;;;19.52;11.05;;;;;;;21.10;67.72;100777.31;1738756;81;22351;-74
2021/09/27 11:12:07;;;;;;;15.40;10.68;;;;;;;21.16;67.60;100780.45;1753745;81;21003;-74
2021/09/27 11:14:42;;;;;;;14.83;10.65;;;;;;;21.22;67.51;100788.19;1755985;81;21137;-74
2021/09/27 11:17:33;;;;;;;17.35;11.68;;;;;;;21.14;67.25;100782.58;1749908;81;21009;-74
2021/09/27 11:20:20;;;;;;;15.48;9.75;;;;;;;21.13;67.08;100782.27;1752039;81;21514;-74
2021/09/27 11:23:00;;;;;;;16.27;11.03;;;;;;;21.14;66.92;100788.01;1768756;81;21651;-74
2021/09/27 11:25:35;;;;;;;;;;;;;;;21.20;66.76;100779.47;1771303;81;21033;-74
2021/09/27 11:28:29;;;;;;;12.30;9.30;;;;;;;21.31;66.69;100778.16;1755877;81;20201;-74
2021/09/27 11:31:21;;;;;;;15.20;9.50;;;;;;;21.40;66.59;100783.55;1749351;81;21464;-74
2021/09/27 11:33:54;;;;;;;13.83;9.38;;;;;;;21.43;66.28;100784.16;1740668;81;21025;-77
2021/09/27 11:36:29;;;;;;;13.18;8.00;;;;;;;21.41;65.99;100783.02;1723797;81;21701;-76
2021/09/27 11:39:15;;;;;;;15.65;9.18;;;;;;;21.52;65.89;100779.52;1728949;81;20951;-76
2021/09/27 11:41:40;;;;;;;13.43;9.03;;;;;;;21.53;65.60;100781.19;1721506;82;21057;-75
2021/09/27 11:44:17;;;;;;;14.38;9.45;;;;;;;21.61;65.48;100786.78;1761839;81;21491;-77
2021/09/27 11:47:02;;;;;;;12.40;9.28;;;;;;;21.63;65.34;100779.25;1760841;81;21451;-77
2021/09/27 11:49:53;;;;;;;11.60;9.00;;;;;;;21.61;65.08;100778.64;1757320;81;22391;-78
2021/09/27 11:52:41;;;;;;;15.38;8.55;;;;;;;21.61;64.87;100774.56;1761939;81;21011;-78
2021/09/27 11:55:11;;;;;;;11.53;8.75;;;;;;;21.66;64.74;100771.99;1749829;81;21553;-78
2021/09/27 11:57:48;;;;;;;11.12;9.28;;;;;;;21.71;64.62;100772.13;1753346;79;21026;-78
2021/09/27 12:00:22;;;;;;;14.15;10.23;;;;;;;21.84;64.55;100769.19;1772969;79;21561;-77
2021/09/27 12:03:17;;;;;;;14.03;9.80;;;;;;;21.93;64.43;100763.73;1755798;81;21773;-78
2021/09/27 12:06:08;;;;;;;15.72;9.25;;;;;;;21.99;64.24;100760.62;1779604;80;21013;-77